Briefing drone pour Chevigny-saint-sauveur

Rechercher une autre localisation

Conditions de vol :


Nous sommes le : Mercredi 30 septembre 2020
Il est 06:08 UTC (08:08 LT)

Lever de soleil : 05:11 UTC (07:11 LT)
Coucher de soleil : 17:47 UTC (19:47 LT)

Météo

L'essentiel des conditions de vol

VIGILANCE MÉTÉO FRANCE - Côte-dOr (21)
Pas de vigilances particulieres
CARTE TEMSI
CARTES DES FRONTS
METAR de LFSD
LFSD 300600Z AUTO VRB01KT 9999 OVC036 12/12 Q1017

Date d'émission: 30/09/2020
Heure d'émission: 06:00 UTC
Vent: Variable 1 KT (2 km/h)
Visibilité horizontale: > 10 km
Plafond :
- Couvert à 3600ft (1097m)
Température: 12 °C
Point de rosée: 12 °C
Humidité: 100%
Pression (QNH): 1017 hPa
TAF de LFSD
LFSD 010600Z 0100/0124 CNL

Conditions prévues :

Heure d'émission : Bulletin éffectué le 01 à 00:00 UTC
Prévision : Valide du 01 a 00:00 UTC au 01 a 23:59 UTC
Nuages : à 0ft (0 m)
WEBCAM POUR CHEVIGNY-SAINT-SAUVEUR

Réglementation

Voler en sécurité

CARTES AERONAUTIQUE 1/500.000
CARTES VAC (LFSD)
SUP AIP




Chargement des AIP...
NOTAM (CHEVIGNY-SAINT-SAUVEUR + Terrain à proximité / FIR )




Chargement des NOTAMS...
CONTACT PREFECTURE 21
Côte-dOr (21) : pref-drone@cote-dor.gouv.fr


Avertissement : Les données mises à disposition sont indicatives. Oxygène Drone ne pourra être tenu responsable de dégâts causés aux biens et aux personnes.